createdAt,value
2019-02-22T00:01:22.056Z,47.07
2019-02-22T00:04:06.772Z,44.30
2019-02-22T00:06:48.628Z,47.30
2019-02-22T00:09:29.656Z,47.93
2019-02-22T00:12:11.204Z,50.83
2019-02-22T00:14:52.357Z,46.17
2019-02-22T00:17:33.575Z,47.33
2019-02-22T00:20:14.952Z,49.67
2019-02-22T00:22:56.649Z,47.57
2019-02-22T00:25:37.567Z,46.17
2019-02-22T00:28:18.820Z,50.33
2019-02-22T00:31:00.121Z,47.00
2019-02-22T00:33:44.863Z,49.23
2019-02-22T00:39:09.635Z,50.30
2019-02-22T00:41:51.569Z,49.87
2019-02-22T00:44:33.362Z,49.60
2019-02-22T00:47:14.448Z,49.60
2019-02-22T00:49:55.751Z,51.43
2019-02-22T00:52:37.407Z,52.10
2019-02-22T00:55:18.615Z,54.77
2019-02-22T00:58:00.207Z,53.97
2019-02-22T01:00:41.455Z,55.83
2019-02-22T01:03:22.636Z,55.63
2019-02-22T01:06:05.683Z,54.43
2019-02-22T01:08:47.096Z,56.37
2019-02-22T01:11:28.436Z,56.87
2019-02-22T01:14:10.231Z,53.87
2019-02-22T01:16:51.602Z,54.40
2019-02-22T01:19:32.872Z,54.90
2019-02-22T01:22:13.945Z,52.63
2019-02-22T01:24:54.997Z,56.50
2019-02-22T01:27:36.022Z,56.10
2019-02-22T01:30:17.344Z,58.57
2019-02-22T01:32:58.444Z,57.93
2019-02-22T01:35:40.301Z,54.70
2019-02-22T01:38:21.593Z,57.87
2019-02-22T01:41:02.902Z,57.40
2019-02-22T01:43:44.786Z,56.53
2019-02-22T01:46:25.954Z,57.40
2019-02-22T01:49:07.071Z,56.73
2019-02-22T01:51:48.573Z,55.70
2019-02-22T01:54:29.656Z,55.73
2019-02-22T01:57:11.392Z,56.90
2019-02-22T01:59:52.764Z,56.93
2019-02-22T02:02:34.110Z,56.30
2019-02-22T02:05:15.663Z,57.47
2019-02-22T02:07:57.153Z,55.47
2019-02-22T02:10:38.626Z,57.43
2019-02-22T02:13:19.787Z,56.53
2019-02-22T02:16:01.191Z,58.90
2019-02-22T02:18:42.579Z,57.73
2019-02-22T02:21:23.750Z,58.20
2019-02-22T02:24:05.134Z,54.60
2019-02-22T02:26:46.579Z,56.33
2019-02-22T02:29:28.016Z,54.07
2019-02-22T02:32:09.458Z,56.67
2019-02-22T02:34:51.426Z,56.20
2019-02-22T02:37:33.167Z,58.73
2019-02-22T02:40:14.610Z,54.00
2019-02-22T02:42:55.985Z,55.97
2019-02-22T02:45:37.016Z,55.30
2019-02-22T02:48:18.373Z,57.30
2019-02-22T02:50:59.838Z,53.87
2019-02-22T02:53:40.993Z,55.23
2019-02-22T02:56:22.378Z,56.87
2019-02-22T02:59:03.916Z,58.13
2019-02-22T03:01:45.197Z,54.53
2019-02-22T03:07:52.100Z,54.80
2019-02-22T03:10:33.364Z,54.00
2019-02-22T03:13:14.423Z,55.10
2019-02-22T03:15:55.541Z,55.73
2019-02-22T03:18:36.967Z,55.67
2019-02-22T03:21:18.298Z,51.97
2019-02-22T03:23:59.608Z,54.23
2019-02-22T03:26:40.839Z,56.70
2019-02-22T03:29:22.409Z,52.90
2019-02-22T03:32:03.741Z,55.20
2019-02-22T03:34:45.640Z,54.20
2019-02-22T03:37:26.616Z,56.47
2019-02-22T03:40:07.738Z,56.37
2019-02-22T03:42:49.306Z,57.13
2019-02-22T03:45:30.895Z,58.10
2019-02-22T03:48:12.019Z,59.07
2019-02-22T03:50:53.333Z,57.17
2019-02-22T03:53:36.160Z,56.03
2019-02-22T03:56:21.038Z,50.87
2019-02-22T03:59:02.730Z,54.67
2019-02-22T04:01:43.844Z,55.83
2019-02-22T04:04:25.463Z,53.20
2019-02-22T04:07:06.970Z,54.67
2019-02-22T04:09:48.317Z,50.30
2019-02-22T04:12:29.478Z,51.50
2019-02-22T04:15:10.879Z,52.80
2019-02-22T04:17:52.676Z,52.10
2019-02-22T04:20:33.949Z,56.37
2019-02-22T04:26:40.470Z,51.30
2019-02-22T04:29:21.668Z,50.27
2019-02-22T04:32:03.088Z,48.33
2019-02-22T04:34:44.551Z,49.90
2019-02-22T04:37:26.504Z,47.20
2019-02-22T04:40:08.450Z,44.97
2019-02-22T04:42:49.575Z,49.20
2019-02-22T04:45:30.978Z,47.07
2019-02-22T04:48:12.140Z,50.80
2019-02-22T04:50:53.905Z,47.00
2019-02-22T04:53:35.417Z,49.13
2019-02-22T04:56:16.647Z,49.77
2019-02-22T04:58:57.723Z,51.63
2019-02-22T05:01:39.812Z,47.30
2019-02-22T05:04:20.863Z,48.73
2019-02-22T05:07:01.924Z,49.07
2019-02-22T05:09:42.962Z,46.00
2019-02-22T05:12:24.239Z,46.30
2019-02-22T05:15:12.473Z,46.67
2019-02-22T05:17:48.404Z,46.10
2019-02-22T05:20:29.533Z,46.03
2019-02-22T05:23:11.004Z,45.07
2019-02-22T05:29:31.469Z,45.60
2019-02-22T05:32:12.607Z,44.47
2019-02-22T05:34:54.014Z,38.40
2019-02-22T05:37:35.074Z,39.80
2019-02-22T05:40:16.164Z,40.23
2019-02-22T05:42:57.548Z,42.13
2019-02-22T05:45:39.116Z,40.80
2019-02-22T05:48:20.227Z,41.37
2019-02-22T05:51:01.592Z,42.50
2019-02-22T05:53:42.944Z,39.67
2019-02-22T05:56:24.091Z,40.40
2019-02-22T05:59:05.172Z,39.80
2019-02-22T06:01:46.620Z,42.23
2019-02-22T06:04:27.919Z,41.57
2019-02-22T06:07:09.337Z,42.00
2019-02-22T06:09:50.463Z,39.33
2019-02-22T06:12:34.844Z,39.70
2019-02-22T06:15:15.344Z,39.53
2019-02-22T06:17:56.498Z,39.63
2019-02-22T06:20:42.967Z,37.83
2019-02-22T06:23:24.524Z,39.07
2019-02-22T06:26:05.999Z,39.63
2019-02-22T06:28:47.529Z,39.77
2019-02-22T06:31:29.454Z,39.37
2019-02-22T06:34:10.900Z,41.63
2019-02-22T06:37:01.318Z,39.73
2019-02-22T06:39:35.525Z,38.07
2019-02-22T06:42:17.268Z,38.30
2019-02-22T06:44:58.562Z,37.47
2019-02-22T06:47:43.371Z,37.40
2019-02-22T06:50:33.310Z,39.67
2019-02-22T06:53:07.966Z,38.37
2019-02-22T06:55:49.222Z,36.83
2019-02-22T06:58:31.319Z,36.80
2019-02-22T07:01:12.321Z,38.30
2019-02-22T07:03:53.615Z,39.40
2019-02-22T07:06:34.728Z,39.07
2019-02-22T07:09:15.728Z,40.03
2019-02-22T07:11:58.784Z,39.10
2019-02-22T07:14:40.498Z,39.20
2019-02-22T07:17:21.678Z,38.63
2019-02-22T07:20:03.048Z,36.83
2019-02-22T07:22:44.203Z,38.77
2019-02-22T07:29:07.510Z,38.80
2019-02-22T07:31:49.426Z,39.73
2019-02-22T07:38:10.540Z,35.30
2019-02-22T07:40:52.143Z,36.70
2019-02-22T11:44:11.343Z,21.97
2019-02-22T11:46:58.834Z,19.47
2019-02-22T11:49:45.778Z,20.90
2019-02-22T11:52:33.113Z,21.97
2019-02-22T11:55:20.502Z,20.53
2019-02-22T11:58:07.469Z,22.50
2019-02-22T12:00:54.702Z,21.00
2019-02-22T12:03:42.032Z,20.70
2019-02-22T12:06:29.754Z,18.93
2019-02-22T12:09:16.989Z,20.50
2019-02-22T12:12:04.323Z,20.57
2019-02-22T12:14:52.416Z,20.70
2019-02-22T12:17:39.689Z,21.27
2019-02-22T12:20:27.230Z,22.10
2019-02-22T12:23:14.352Z,20.47
2019-02-22T12:26:01.829Z,20.13
2019-02-22T12:28:48.580Z,21.00
2019-02-22T12:32:21.134Z,18.73
2019-02-22T12:35:09.230Z,22.10
2019-02-22T12:37:56.697Z,22.30
2019-02-22T12:40:50.121Z,25.10
2019-02-22T12:43:37.364Z,23.53
2019-02-22T12:46:24.928Z,22.27
2019-02-22T12:49:12.716Z,21.70
2019-02-22T12:51:59.934Z,19.50
2019-02-22T12:54:47.533Z,19.40
2019-02-22T12:57:34.758Z,19.23
2019-02-22T13:00:22.208Z,20.23
2019-02-22T13:03:09.430Z,19.10
2019-02-22T13:05:56.440Z,19.97
2019-02-22T13:08:43.742Z,18.50
2019-02-22T13:11:31.075Z,19.70
2019-02-22T13:14:18.587Z,21.70
2019-02-22T13:17:06.250Z,19.97
2019-02-22T13:19:53.784Z,20.57
2019-02-22T13:22:41.252Z,20.23
2019-02-22T13:25:28.522Z,20.00
2019-02-22T13:28:16.220Z,20.40
2019-02-22T13:31:03.164Z,22.30
2019-02-22T13:33:50.705Z,21.07
2019-02-22T13:36:38.161Z,21.87
2019-02-22T13:39:25.299Z,25.27
2019-02-22T13:42:12.799Z,24.93
2019-02-22T13:44:59.922Z,23.83
2019-02-22T13:47:47.675Z,22.23
2019-02-22T13:50:35.177Z,21.70
2019-02-22T13:53:22.389Z,21.20
2019-02-22T13:56:09.916Z,24.10
2019-02-22T13:58:57.168Z,24.57
2019-02-22T14:01:44.138Z,25.87
2019-02-22T14:04:31.401Z,25.17
2019-02-22T14:07:18.466Z,24.70
2019-02-22T14:10:05.926Z,23.20
2019-02-22T14:12:52.710Z,24.30
2019-02-22T14:15:39.929Z,24.43
2019-02-22T14:18:27.144Z,25.40
2019-02-22T14:21:13.773Z,24.87
2019-02-22T14:24:01.156Z,22.67
2019-02-22T14:26:48.183Z,29.63
2019-02-22T14:29:35.114Z,24.23
2019-02-22T14:32:22.262Z,22.97
2019-02-22T14:35:09.194Z,23.17
2019-02-22T14:37:56.417Z,23.90
2019-02-22T14:40:43.466Z,23.90
2019-02-22T14:43:30.508Z,22.30
2019-02-22T14:46:25.640Z,21.80
2019-02-22T14:49:06.315Z,22.60
2019-02-22T14:51:53.610Z,23.93
2019-02-22T14:54:40.397Z,23.53
2019-02-22T14:57:27.445Z,24.03
2019-02-22T15:00:17.882Z,24.80
2019-02-22T15:03:04.919Z,24.70
2019-02-22T15:05:52.111Z,26.10
2019-02-22T15:08:39.650Z,27.33
2019-02-22T15:11:27.003Z,25.13
2019-02-22T15:14:13.818Z,26.70
2019-02-22T15:17:14.479Z,26.37
2019-02-22T15:20:01.658Z,27.00
2019-02-22T15:22:48.781Z,27.60
2019-02-22T15:25:35.712Z,27.67
2019-02-22T15:28:22.719Z,26.30
2019-02-22T15:31:10.063Z,25.67
2019-02-22T15:33:57.407Z,25.23
2019-02-22T15:36:44.757Z,26.60
2019-02-22T15:39:32.219Z,26.20
2019-02-22T15:42:19.239Z,27.20
2019-02-22T15:45:09.428Z,25.40
2019-02-22T15:47:56.661Z,25.73
2019-02-22T15:50:43.767Z,27.07
2019-02-22T15:53:30.944Z,26.83
2019-02-22T15:56:18.503Z,26.20
2019-02-22T15:59:05.727Z,28.10
2019-02-22T16:01:55.844Z,25.80
2019-02-22T16:04:45.121Z,24.80
2019-02-22T16:07:31.911Z,25.90
2019-02-22T16:10:18.695Z,25.57
2019-02-22T16:13:06.124Z,25.17
2019-02-22T16:15:53.205Z,24.70
2019-02-22T16:18:40.225Z,24.50
2019-02-22T16:21:27.430Z,23.20
2019-02-22T16:24:14.761Z,24.37
2019-02-22T16:27:01.904Z,23.10
2019-02-22T16:29:48.879Z,23.80
2019-02-22T16:32:36.147Z,22.97
2019-02-22T16:35:23.023Z,23.30
2019-02-22T16:38:10.042Z,21.67
2019-02-22T16:40:57.332Z,21.07
2019-02-22T16:43:44.372Z,22.77
2019-02-22T16:46:34.951Z,22.00
2019-02-22T16:49:20.269Z,21.97
2019-02-22T16:52:07.527Z,22.30
2019-02-22T16:54:54.686Z,22.30
2019-02-22T16:57:41.670Z,21.53
2019-02-22T17:00:28.935Z,25.40
2019-02-22T17:03:15.910Z,23.80
2019-02-22T17:06:02.863Z,22.67
2019-02-22T17:08:50.251Z,23.63
2019-02-22T17:11:37.461Z,21.33
2019-02-22T17:14:24.691Z,21.63
2019-02-22T17:17:11.933Z,22.60
2019-02-22T17:19:58.858Z,21.70
2019-02-22T17:22:45.784Z,22.80
2019-02-22T17:25:32.804Z,23.57
2019-02-22T17:28:20.211Z,26.30
2019-02-22T17:31:07.539Z,26.33
2019-02-22T17:33:54.466Z,25.57
2019-02-22T17:36:41.865Z,27.00
2019-02-22T17:39:28.864Z,26.57
2019-02-22T17:42:16.116Z,27.20
2019-02-22T17:45:03.443Z,24.33
2019-02-22T17:47:50.714Z,23.37
2019-02-22T17:50:38.098Z,26.07
2019-02-22T17:53:25.332Z,23.87
2019-02-22T17:56:12.793Z,25.20
2019-02-22T17:58:59.700Z,22.97
2019-02-22T18:01:46.696Z,25.20
2019-02-22T18:04:34.138Z,24.93
2019-02-22T18:07:21.151Z,24.63
2019-02-22T18:10:09.898Z,21.27
2019-02-22T18:12:56.940Z,21.40
2019-02-22T18:15:44.047Z,21.00
2019-02-22T18:18:31.019Z,19.70
2019-02-22T18:21:17.772Z,18.73
2019-02-22T18:24:05.169Z,20.87
2019-02-22T18:26:52.521Z,18.23
2019-02-22T18:29:39.734Z,18.97
2019-02-22T18:32:26.785Z,20.57
2019-02-22T18:35:13.715Z,18.70
2019-02-22T18:38:00.416Z,18.10
2019-02-22T18:40:48.146Z,17.23
2019-02-22T18:43:34.940Z,16.53
2019-02-22T18:46:22.178Z,16.70
2019-02-22T18:49:09.227Z,17.87
2019-02-22T18:51:56.300Z,18.00
2019-02-22T18:54:43.333Z,15.73
2019-02-22T18:57:30.421Z,16.57
2019-02-22T19:00:20.204Z,16.40
2019-02-22T19:03:07.560Z,15.10
2019-02-22T19:05:54.867Z,14.40
2019-02-22T19:08:42.221Z,15.00
2019-02-22T19:11:11.924Z,13.63
2019-02-22T19:13:41.286Z,14.40
2019-02-22T19:16:10.678Z,15.13
2019-02-22T19:18:40.200Z,14.27
2019-02-22T19:21:09.473Z,14.73
2019-02-22T19:23:38.819Z,14.73
2019-02-22T19:26:08.165Z,14.73
2019-02-22T19:28:37.552Z,14.70
2019-02-22T19:31:06.848Z,14.07
2019-02-22T19:33:36.114Z,13.20
2019-02-22T19:36:05.379Z,14.20
2019-02-22T19:38:34.660Z,13.70
2019-02-22T19:41:04.111Z,14.70
2019-02-22T19:43:33.428Z,14.47
2019-02-22T19:46:02.821Z,15.23
2019-02-22T19:48:32.248Z,14.70
2019-02-22T19:51:01.758Z,15.40
2019-02-22T19:53:30.989Z,14.43
2019-02-22T19:56:00.358Z,15.07
2019-02-22T19:58:29.690Z,16.73
2019-02-22T20:00:58.957Z,15.57
2019-02-22T20:03:28.296Z,16.50
2019-02-22T20:05:57.609Z,16.33
2019-02-22T20:08:26.904Z,16.60
2019-02-22T20:10:56.245Z,15.87
2019-02-22T20:13:25.566Z,16.90
2019-02-22T20:15:55.009Z,18.17
2019-02-22T20:18:24.348Z,18.70
2019-02-22T20:20:53.620Z,18.50
2019-02-22T20:23:22.974Z,18.63
2019-02-22T20:26:11.662Z,18.50
2019-02-22T20:28:41.032Z,19.43
2019-02-22T20:31:19.868Z,21.57
2019-02-22T20:33:41.521Z,21.53
2019-02-22T20:36:10.811Z,20.97
2019-02-22T20:38:40.294Z,20.97
2019-02-22T20:41:09.655Z,22.37
2019-02-22T20:43:39.068Z,21.80
2019-02-22T20:46:08.566Z,19.70
2019-02-22T20:48:38.023Z,18.90
2019-02-22T20:51:07.458Z,21.30
2019-02-22T20:53:36.859Z,20.60
2019-02-22T20:56:06.199Z,27.80
2019-02-22T20:58:35.653Z,21.90
2019-02-22T21:01:14.432Z,20.67
2019-02-22T21:03:36.148Z,24.40
2019-02-22T21:06:05.661Z,23.80
2019-02-22T21:08:34.992Z,24.20
2019-02-22T21:11:04.376Z,23.67
2019-02-22T21:13:33.678Z,22.30
2019-02-22T21:16:04.622Z,21.80
2019-02-22T21:18:34.163Z,22.23
2019-02-22T21:21:03.603Z,22.00
2019-02-22T21:23:32.949Z,22.40
2019-02-22T21:26:04.298Z,23.30
2019-02-22T21:28:33.414Z,24.57
2019-02-22T21:31:02.684Z,22.30
2019-02-22T21:33:32.013Z,24.20
2019-02-22T21:36:01.300Z,23.20
2019-02-22T21:38:30.594Z,23.50
2019-02-22T21:40:59.941Z,22.20
2019-02-22T21:43:29.264Z,23.80
2019-02-22T21:45:58.569Z,24.93
2019-02-22T21:48:32.556Z,23.50
2019-02-22T21:51:06.832Z,22.27
2019-02-22T21:53:41.752Z,21.97
2019-02-22T21:56:11.029Z,25.60
2019-02-22T21:58:40.330Z,35.90
2019-02-22T22:01:09.682Z,26.90
2019-02-22T22:03:38.919Z,23.27
2019-02-22T22:06:08.248Z,25.10
2019-02-22T22:08:37.599Z,23.73
2019-02-22T22:11:06.902Z,22.57
2019-02-22T22:13:36.171Z,23.20
2019-02-22T22:16:05.423Z,22.77
2019-02-22T22:18:38.812Z,21.43
2019-02-22T22:21:05.710Z,23.67
2019-02-22T22:23:35.052Z,23.57
2019-02-22T22:26:04.320Z,22.63
2019-02-22T22:28:33.585Z,22.37
2019-02-22T22:31:02.875Z,21.90
2019-02-22T22:33:32.116Z,26.20
2019-02-22T22:36:01.478Z,22.33
2019-02-22T22:38:50.079Z,22.60
2019-02-22T22:41:19.350Z,23.73
2019-02-22T22:43:48.607Z,23.63
2019-02-22T22:46:18.000Z,22.83
2019-02-22T22:48:50.340Z,22.50
2019-02-22T22:51:18.264Z,22.30
2019-02-22T22:53:47.532Z,21.97
2019-02-22T22:56:18.200Z,21.43
2019-02-22T22:58:48.010Z,23.63
2019-02-22T23:01:37.232Z,22.60
2019-02-22T23:04:06.622Z,21.73
2019-02-22T23:06:35.881Z,22.10
2019-02-22T23:09:08.056Z,21.27
2019-02-22T23:11:38.070Z,21.40
2019-02-22T23:14:07.302Z,20.80
2019-02-22T23:16:36.635Z,23.43
2019-02-22T23:19:26.700Z,22.87
2019-02-22T23:21:56.000Z,21.07
2019-02-22T23:24:25.331Z,22.73
2019-02-22T23:26:54.656Z,21.00
2019-02-22T23:29:23.942Z,22.00
2019-02-22T23:31:53.197Z,19.97
2019-02-22T23:34:41.797Z,20.27
2019-02-22T23:37:11.049Z,20.47
2019-02-22T23:39:40.298Z,20.43
2019-02-22T23:42:09.596Z,20.03
2019-02-22T23:44:58.222Z,18.70
2019-02-22T23:47:27.523Z,19.30
2019-02-22T23:49:56.786Z,20.07
2019-02-22T23:52:26.032Z,18.57
2019-02-22T23:54:55.278Z,19.20
2019-02-22T23:57:24.628Z,17.73
2019-02-22T23:59:53.862Z,19.00
